Terminal Aerodrome Forecast
Issued by NWS Binghamton, NY

Current Version | Previous Version | Text Only | Print | Product List | Glossary On
Versions: 1 2 3 4 5 6 7 8 9 10 11 12 13 14 15 16 17 18 19 20 21 22 23 24 25 26 27 28 29 30 31
000
FTUS41 KBGM 211132
TAFAVP
TAF
KAVP 211132Z 2112/2212 18005KT P6SM BKN015
     FM211600 20008G14KT P6SM FEW040 BKN090
     FM220000 21005KT P6SM BKN040
     FM220700 VRB03KT P6SM BKN020=

USA.gov is the U.S. government's official web portal to all federal, state and local government web resources and services.